sensor_id;sensor_type;location;lat;lon;timestamp;P1;durP1;ratioP1;P2;durP2;ratioP2
17818;SDS011;9034;50.284;19.310;2023-04-25T00:00:50;9.45;;;5.90;;
17818;SDS011;9034;50.284;19.310;2023-04-25T00:01:54;6.95;;;4.60;;
17818;SDS011;9034;50.284;19.310;2023-04-25T00:02:55;8.07;;;5.43;;
17818;SDS011;9034;50.284;19.310;2023-04-25T00:03:59;8.15;;;5.75;;
17818;SDS011;9034;50.284;19.310;2023-04-25T00:05:02;7.72;;;5.30;;
17818;SDS011;9034;50.284;19.310;2023-04-25T00:06:06;8.65;;;5.60;;
17818;SDS011;9034;50.284;19.310;2023-04-25T00:07:10;9.50;;;5.78;;
17818;SDS011;9034;50.284;19.310;2023-04-25T00:08:13;9.27;;;6.03;;
17818;SDS011;9034;50.284;19.310;2023-04-25T00:09:15;10.50;;;6.25;;
17818;SDS011;9034;50.284;19.310;2023-04-25T00:10:18;14.40;;;7.05;;
17818;SDS011;9034;50.284;19.310;2023-04-25T00:11:20;10.57;;;6.28;;
17818;SDS011;9034;50.284;19.310;2023-04-25T00:12:23;9.85;;;6.38;;
17818;SDS011;9034;50.284;19.310;2023-04-25T00:13:25;7.88;;;5.75;;
17818;SDS011;9034;50.284;19.310;2023-04-25T00:14:29;12.15;;;6.05;;
17818;SDS011;9034;50.284;19.310;2023-04-25T00:15:30;11.38;;;7.20;;
17818;SDS011;9034;50.284;19.310;2023-04-25T00:16:33;11.43;;;6.22;;
17818;SDS011;9034;50.284;19.310;2023-04-25T00:17:36;12.43;;;7.53;;
17818;SDS011;9034;50.284;19.310;2023-04-25T00:18:40;12.93;;;7.28;;
17818;SDS011;9034;50.284;19.310;2023-04-25T00:19:42;12.65;;;7.50;;
17818;SDS011;9034;50.284;19.310;2023-04-25T00:20:47;14.10;;;10.20;;
17818;SDS011;9034;50.284;19.310;2023-04-25T00:21:49;11.55;;;7.22;;
17818;SDS011;9034;50.284;19.310;2023-04-25T00:22:53;8.75;;;5.53;;
17818;SDS011;9034;50.284;19.310;2023-04-25T00:23:56;10.82;;;6.13;;
17818;SDS011;9034;50.284;19.310;2023-04-25T00:24:58;10.75;;;6.55;;
17818;SDS011;9034;50.284;19.310;2023-04-25T00:26:01;14.20;;;7.78;;
17818;SDS011;9034;50.284;19.310;2023-04-25T00:27:05;13.38;;;7.75;;
17818;SDS011;9034;50.284;19.310;2023-04-25T00:28:08;12.27;;;5.90;;
17818;SDS011;9034;50.284;19.310;2023-04-25T00:29:10;10.95;;;6.45;;
17818;SDS011;9034;50.284;19.310;2023-04-25T00:30:13;10.80;;;6.63;;
17818;SDS011;9034;50.284;19.310;2023-04-25T00:31:16;10.32;;;6.30;;
17818;SDS011;9034;50.284;19.310;2023-04-25T00:32:18;8.65;;;6.05;;
17818;SDS011;9034;50.284;19.310;2023-04-25T00:33:21;11.20;;;6.22;;
17818;SDS011;9034;50.284;19.310;2023-04-25T00:34:23;10.48;;;6.22;;
17818;SDS011;9034;50.284;19.310;2023-04-25T00:35:26;8.15;;;5.85;;
17818;SDS011;9034;50.284;19.310;2023-04-25T00:36:28;12.93;;;6.63;;
17818;SDS011;9034;50.284;19.310;2023-04-25T00:37:32;9.90;;;6.35;;
17818;SDS011;9034;50.284;19.310;2023-04-25T00:38:35;10.57;;;6.45;;
17818;SDS011;9034;50.284;19.310;2023-04-25T00:39:39;12.23;;;6.65;;
17818;SDS011;9034;50.284;19.310;2023-04-25T00:40:41;9.05;;;5.90;;
17818;SDS011;9034;50.284;19.310;2023-04-25T00:41:45;12.80;;;6.15;;
17818;SDS011;9034;50.284;19.310;2023-04-25T00:42:47;10.15;;;6.20;;
17818;SDS011;9034;50.284;19.310;2023-04-25T00:43:50;10.30;;;6.85;;
17818;SDS011;9034;50.284;19.310;2023-04-25T00:44:53;11.48;;;6.97;;
17818;SDS011;9034;50.284;19.310;2023-04-25T00:45:55;10.73;;;6.10;;
17818;SDS011;9034;50.284;19.310;2023-04-25T00:46:59;11.18;;;7.00;;
17818;SDS011;9034;50.284;19.310;2023-04-25T00:48:03;10.95;;;6.53;;
17818;SDS011;9034;50.284;19.310;2023-04-25T00:49:07;10.27;;;6.35;;
17818;SDS011;9034;50.284;19.310;2023-04-25T00:50:10;9.13;;;6.05;;
17818;SDS011;9034;50.284;19.310;2023-04-25T00:51:13;8.63;;;6.30;;
17818;SDS011;9034;50.284;19.310;2023-04-25T00:52:18;8.75;;;5.95;;
17818;SDS011;9034;50.284;19.310;2023-04-25T00:53:21;9.00;;;5.80;;
17818;SDS011;9034;50.284;19.310;2023-04-25T00:54:26;7.85;;;5.78;;
17818;SDS011;9034;50.284;19.310;2023-04-25T00:55:28;7.88;;;6.68;;
17818;SDS011;9034;50.284;19.310;2023-04-25T00:56:30;9.07;;;6.50;;
17818;SDS011;9034;50.284;19.310;2023-04-25T00:57:32;8.38;;;6.70;;
17818;SDS011;9034;50.284;19.310;2023-04-25T00:58:35;9.18;;;6.53;;
17818;SDS011;9034;50.284;19.310;2023-04-25T00:59:38;10.50;;;7.07;;
17818;SDS011;9034;50.284;19.310;2023-04-25T01:00:40;8.50;;;6.05;;
17818;SDS011;9034;50.284;19.310;2023-04-25T01:01:43;8.77;;;6.50;;
17818;SDS011;9034;50.284;19.310;2023-04-25T01:02:46;9.93;;;6.53;;
17818;SDS011;9034;50.284;19.310;2023-04-25T01:03:48;10.52;;;6.28;;
17818;SDS011;9034;50.284;19.310;2023-04-25T01:04:52;14.02;;;11.27;;
17818;SDS011;9034;50.284;19.310;2023-04-25T01:05:54;18.58;;;13.63;;
17818;SDS011;9034;50.284;19.310;2023-04-25T01:06:57;23.40;;;14.55;;
17818;SDS011;9034;50.284;19.310;2023-04-25T01:07:59;20.55;;;13.23;;
17818;SDS011;9034;50.284;19.310;2023-04-25T01:09:02;14.10;;;9.93;;
17818;SDS011;9034;50.284;19.310;2023-04-25T01:10:08;23.08;;;13.05;;
17818;SDS011;9034;50.284;19.310;2023-04-25T01:11:11;18.02;;;11.48;;
17818;SDS011;9034;50.284;19.310;2023-04-25T01:12:13;14.55;;;9.48;;
17818;SDS011;9034;50.284;19.310;2023-04-25T01:13:16;13.60;;;9.95;;
17818;SDS011;9034;50.284;19.310;2023-04-25T01:14:19;19.23;;;13.15;;
17818;SDS011;9034;50.284;19.310;2023-04-25T01:15:22;17.13;;;11.60;;
17818;SDS011;9034;50.284;19.310;2023-04-25T01:16:23;19.63;;;12.77;;
17818;SDS011;9034;50.284;19.310;2023-04-25T01:17:27;18.33;;;12.15;;
17818;SDS011;9034;50.284;19.310;2023-04-25T01:18:29;18.45;;;11.13;;
17818;SDS011;9034;50.284;19.310;2023-04-25T01:19:32;19.45;;;13.15;;
17818;SDS011;9034;50.284;19.310;2023-04-25T01:20:34;22.08;;;13.15;;
17818;SDS011;9034;50.284;19.310;2023-04-25T01:21:39;20.70;;;13.30;;
17818;SDS011;9034;50.284;19.310;2023-04-25T01:22:41;19.58;;;14.15;;
17818;SDS011;9034;50.284;19.310;2023-04-25T01:23:45;17.92;;;12.80;;
17818;SDS011;9034;50.284;19.310;2023-04-25T01:24:47;20.48;;;13.18;;
17818;SDS011;9034;50.284;19.310;2023-04-25T01:25:49;18.27;;;14.38;;
17818;SDS011;9034;50.284;19.310;2023-04-25T01:26:52;21.42;;;14.23;;
17818;SDS011;9034;50.284;19.310;2023-04-25T01:27:58;17.80;;;13.95;;
17818;SDS011;9034;50.284;19.310;2023-04-25T01:29:01;16.63;;;13.52;;
17818;SDS011;9034;50.284;19.310;2023-04-25T01:30:05;18.85;;;13.35;;
17818;SDS011;9034;50.284;19.310;2023-04-25T01:31:09;16.45;;;12.07;;
17818;SDS011;9034;50.284;19.310;2023-04-25T01:32:13;22.33;;;14.25;;
17818;SDS011;9034;50.284;19.310;2023-04-25T01:33:15;19.25;;;13.93;;
17818;SDS011;9034;50.284;19.310;2023-04-25T01:34:18;17.58;;;13.50;;
17818;SDS011;9034;50.284;19.310;2023-04-25T01:35:21;20.08;;;13.43;;
17818;SDS011;9034;50.284;19.310;2023-04-25T01:36:27;18.38;;;12.82;;
17818;SDS011;9034;50.284;19.310;2023-04-25T01:37:31;20.90;;;14.13;;
17818;SDS011;9034;50.284;19.310;2023-04-25T01:38:33;19.90;;;14.20;;
17818;SDS011;9034;50.284;19.310;2023-04-25T01:39:36;25.08;;;14.95;;
17818;SDS011;9034;50.284;19.310;2023-04-25T01:40:40;19.08;;;14.13;;
17818;SDS011;9034;50.284;19.310;2023-04-25T01:41:42;21.25;;;14.43;;
17818;SDS011;9034;50.284;19.310;2023-04-25T01:42:45;19.00;;;15.68;;
17818;SDS011;9034;50.284;19.310;2023-04-25T01:43:47;21.60;;;16.20;;
17818;SDS011;9034;50.284;19.310;2023-04-25T01:44:50;22.92;;;15.02;;
17818;SDS011;9034;50.284;19.310;2023-04-25T01:45:53;23.92;;;16.23;;
17818;SDS011;9034;50.284;19.310;2023-04-25T01:46:56;23.23;;;15.48;;
17818;SDS011;9034;50.284;19.310;2023-04-25T01:47:58;21.10;;;15.52;;
17818;SDS011;9034;50.284;19.310;2023-04-25T01:49:01;21.05;;;16.23;;
17818;SDS011;9034;50.284;19.310;2023-04-25T01:50:04;22.85;;;17.05;;
17818;SDS011;9034;50.284;19.310;2023-04-25T01:51:10;24.08;;;17.95;;
17818;SDS011;9034;50.284;19.310;2023-04-25T01:52:13;19.65;;;15.63;;
17818;SDS011;9034;50.284;19.310;2023-04-25T01:53:17;20.90;;;15.70;;
17818;SDS011;9034;50.284;19.310;2023-04-25T01:54:20;18.02;;;14.70;;
17818;SDS011;9034;50.284;19.310;2023-04-25T01:55:23;17.52;;;14.02;;
17818;SDS011;9034;50.284;19.310;2023-04-25T01:56:37;22.05;;;15.57;;
17818;SDS011;9034;50.284;19.310;2023-04-25T01:57:41;18.65;;;14.73;;
17818;SDS011;9034;50.284;19.310;2023-04-25T01:58:45;15.65;;;13.05;;
17818;SDS011;9034;50.284;19.310;2023-04-25T01:59:54;14.75;;;12.23;;
17818;SDS011;9034;50.284;19.310;2023-04-25T02:01:14;16.27;;;11.32;;
17818;SDS011;9034;50.284;19.310;2023-04-25T02:02:26;16.83;;;11.35;;
17818;SDS011;9034;50.284;19.310;2023-04-25T02:03:28;13.45;;;11.35;;
17818;SDS011;9034;50.284;19.310;2023-04-25T02:04:32;12.43;;;10.23;;
17818;SDS011;9034;50.284;19.310;2023-04-25T02:05:35;12.23;;;10.10;;
17818;SDS011;9034;50.284;19.310;2023-04-25T02:06:41;12.80;;;10.90;;
17818;SDS011;9034;50.284;19.310;2023-04-25T02:07:43;12.10;;;10.30;;
17818;SDS011;9034;50.284;19.310;2023-04-25T02:08:47;16.85;;;11.57;;
17818;SDS011;9034;50.284;19.310;2023-04-25T02:09:50;17.15;;;12.18;;
17818;SDS011;9034;50.284;19.310;2023-04-25T02:10:54;13.05;;;10.70;;
17818;SDS011;9034;50.284;19.310;2023-04-25T02:11:57;13.93;;;10.80;;
17818;SDS011;9034;50.284;19.310;2023-04-25T02:13:08;13.85;;;11.77;;
17818;SDS011;9034;50.284;19.310;2023-04-25T02:14:24;13.65;;;11.38;;
17818;SDS011;9034;50.284;19.310;2023-04-25T02:15:47;12.98;;;11.27;;
17818;SDS011;9034;50.284;19.310;2023-04-25T02:16:52;13.20;;;11.10;;
17818;SDS011;9034;50.284;19.310;2023-04-25T02:17:54;15.30;;;11.82;;
17818;SDS011;9034;50.284;19.310;2023-04-25T02:18:57;15.10;;;12.85;;
17818;SDS011;9034;50.284;19.310;2023-04-25T02:20:00;12.75;;;11.45;;
17818;SDS011;9034;50.284;19.310;2023-04-25T02:21:03;13.55;;;11.57;;
17818;SDS011;9034;50.284;19.310;2023-04-25T02:22:05;15.90;;;11.50;;
17818;SDS011;9034;50.284;19.310;2023-04-25T02:23:08;15.07;;;11.15;;
17818;SDS011;9034;50.284;19.310;2023-04-25T02:24:11;13.65;;;11.60;;
17818;SDS011;9034;50.284;19.310;2023-04-25T02:25:14;14.95;;;11.63;;
17818;SDS011;9034;50.284;19.310;2023-04-25T02:26:17;15.95;;;11.63;;
17818;SDS011;9034;50.284;19.310;2023-04-25T02:27:20;14.02;;;11.40;;
17818;SDS011;9034;50.284;19.310;2023-04-25T02:28:22;12.75;;;11.00;;
17818;SDS011;9034;50.284;19.310;2023-04-25T02:29:26;14.20;;;11.80;;
17818;SDS011;9034;50.284;19.310;2023-04-25T02:30:28;14.02;;;10.40;;
17818;SDS011;9034;50.284;19.310;2023-04-25T02:31:31;16.40;;;11.35;;
17818;SDS011;9034;50.284;19.310;2023-04-25T02:32:33;12.10;;;10.75;;
17818;SDS011;9034;50.284;19.310;2023-04-25T02:33:36;12.75;;;10.10;;
17818;SDS011;9034;50.284;19.310;2023-04-25T02:34:40;12.55;;;9.90;;
17818;SDS011;9034;50.284;19.310;2023-04-25T02:35:42;13.45;;;11.13;;
17818;SDS011;9034;50.284;19.310;2023-04-25T02:36:44;12.95;;;10.07;;
17818;SDS011;9034;50.284;19.310;2023-04-25T02:37:51;14.80;;;11.35;;
17818;SDS011;9034;50.284;19.310;2023-04-25T02:38:53;10.93;;;9.63;;
17818;SDS011;9034;50.284;19.310;2023-04-25T02:39:57;13.80;;;10.32;;
17818;SDS011;9034;50.284;19.310;2023-04-25T02:40:59;14.52;;;10.52;;
17818;SDS011;9034;50.284;19.310;2023-04-25T02:42:02;12.30;;;10.90;;
17818;SDS011;9034;50.284;19.310;2023-04-25T02:43:04;13.93;;;10.98;;
17818;SDS011;9034;50.284;19.310;2023-04-25T02:44:07;12.63;;;10.85;;
17818;SDS011;9034;50.284;19.310;2023-04-25T02:45:09;12.88;;;10.20;;
17818;SDS011;9034;50.284;19.310;2023-04-25T02:46:12;12.57;;;10.63;;
17818;SDS011;9034;50.284;19.310;2023-04-25T02:47:14;12.68;;;9.55;;
17818;SDS011;9034;50.284;19.310;2023-04-25T02:48:17;11.82;;;9.68;;
17818;SDS011;9034;50.284;19.310;2023-04-25T02:49:19;11.55;;;10.35;;
17818;SDS011;9034;50.284;19.310;2023-04-25T02:50:22;13.10;;;11.15;;
17818;SDS011;9034;50.284;19.310;2023-04-25T02:51:24;14.13;;;11.20;;
17818;SDS011;9034;50.284;19.310;2023-04-25T02:52:27;14.45;;;10.27;;
17818;SDS011;9034;50.284;19.310;2023-04-25T02:53:37;11.07;;;9.70;;
17818;SDS011;9034;50.284;19.310;2023-04-25T02:54:40;12.75;;;10.52;;
17818;SDS011;9034;50.284;19.310;2023-04-25T02:55:43;11.93;;;9.75;;
17818;SDS011;9034;50.284;19.310;2023-04-25T02:56:46;14.55;;;10.65;;
17818;SDS011;9034;50.284;19.310;2023-04-25T02:57:54;14.13;;;10.38;;
17818;SDS011;9034;50.284;19.310;2023-04-25T02:59:20;15.15;;;11.23;;
17818;SDS011;9034;50.284;19.310;2023-04-25T03:00:23;14.00;;;11.00;;
17818;SDS011;9034;50.284;19.310;2023-04-25T03:01:25;11.23;;;9.90;;
17818;SDS011;9034;50.284;19.310;2023-04-25T03:02:28;12.45;;;10.80;;
17818;SDS011;9034;50.284;19.310;2023-04-25T03:03:30;13.18;;;11.75;;
17818;SDS011;9034;50.284;19.310;2023-04-25T03:04:33;12.25;;;9.75;;
17818;SDS011;9034;50.284;19.310;2023-04-25T03:05:35;10.88;;;9.63;;
17818;SDS011;9034;50.284;19.310;2023-04-25T03:06:39;13.40;;;10.02;;
17818;SDS011;9034;50.284;19.310;2023-04-25T03:07:41;12.43;;;9.48;;
17818;SDS011;9034;50.284;19.310;2023-04-25T03:08:45;12.18;;;9.60;;
17818;SDS011;9034;50.284;19.310;2023-04-25T03:09:47;10.95;;;9.32;;
17818;SDS011;9034;50.284;19.310;2023-04-25T03:10:51;11.32;;;8.63;;
17818;SDS011;9034;50.284;19.310;2023-04-25T03:11:58;11.10;;;9.18;;
17818;SDS011;9034;50.284;19.310;2023-04-25T03:13:02;12.00;;;9.88;;
17818;SDS011;9034;50.284;19.310;2023-04-25T03:14:03;11.73;;;9.85;;
17818;SDS011;9034;50.284;19.310;2023-04-25T03:15:06;10.55;;;9.35;;
17818;SDS011;9034;50.284;19.310;2023-04-25T03:16:10;11.85;;;9.88;;
17818;SDS011;9034;50.284;19.310;2023-04-25T03:17:12;12.98;;;10.05;;
17818;SDS011;9034;50.284;19.310;2023-04-25T03:18:14;11.52;;;10.25;;
17818;SDS011;9034;50.284;19.310;2023-04-25T03:19:17;11.05;;;8.88;;
17818;SDS011;9034;50.284;19.310;2023-04-25T03:20:20;11.63;;;9.70;;
17818;SDS011;9034;50.284;19.310;2023-04-25T03:21:22;11.75;;;9.63;;
17818;SDS011;9034;50.284;19.310;2023-04-25T03:22:25;11.57;;;10.30;;
17818;SDS011;9034;50.284;19.310;2023-04-25T03:23:28;11.15;;;9.88;;
17818;SDS011;9034;50.284;19.310;2023-04-25T03:24:30;10.52;;;9.05;;
17818;SDS011;9034;50.284;19.310;2023-04-25T03:25:33;10.80;;;9.43;;
17818;SDS011;9034;50.284;19.310;2023-04-25T03:26:36;10.88;;;9.35;;
17818;SDS011;9034;50.284;19.310;2023-04-25T03:27:39;12.23;;;9.88;;
17818;SDS011;9034;50.284;19.310;2023-04-25T03:28:41;10.95;;;9.52;;
17818;SDS011;9034;50.284;19.310;2023-04-25T03:29:44;13.57;;;9.55;;
17818;SDS011;9034;50.284;19.310;2023-04-25T03:30:46;10.07;;;8.90;;
17818;SDS011;9034;50.284;19.310;2023-04-25T03:31:49;10.10;;;9.07;;
17818;SDS011;9034;50.284;19.310;2023-04-25T03:32:51;14.02;;;10.75;;
17818;SDS011;9034;50.284;19.310;2023-04-25T03:33:54;13.88;;;10.32;;
17818;SDS011;9034;50.284;19.310;2023-04-25T03:34:57;11.63;;;10.35;;
17818;SDS011;9034;50.284;19.310;2023-04-25T03:36:01;13.60;;;10.85;;
17818;SDS011;9034;50.284;19.310;2023-04-25T03:37:04;12.50;;;11.30;;
17818;SDS011;9034;50.284;19.310;2023-04-25T03:38:11;14.20;;;12.77;;
17818;SDS011;9034;50.284;19.310;2023-04-25T03:39:14;15.60;;;12.32;;
17818;SDS011;9034;50.284;19.310;2023-04-25T03:40:21;13.88;;;11.75;;
17818;SDS011;9034;50.284;19.310;2023-04-25T03:41:53;18.95;;;12.60;;
17818;SDS011;9034;50.284;19.310;2023-04-25T03:42:56;11.65;;;10.45;;
17818;SDS011;9034;50.284;19.310;2023-04-25T03:43:58;12.20;;;10.90;;
17818;SDS011;9034;50.284;19.310;2023-04-25T03:45:01;10.50;;;9.40;;
17818;SDS011;9034;50.284;19.310;2023-04-25T03:46:04;11.40;;;9.98;;
17818;SDS011;9034;50.284;19.310;2023-04-25T03:47:07;12.52;;;9.40;;
17818;SDS011;9034;50.284;19.310;2023-04-25T03:48:08;10.05;;;8.80;;
17818;SDS011;9034;50.284;19.310;2023-04-25T03:49:12;9.95;;;8.95;;
17818;SDS011;9034;50.284;19.310;2023-04-25T03:50:31;11.27;;;8.63;;
17818;SDS011;9034;50.284;19.310;2023-04-25T03:51:34;8.98;;;7.95;;
17818;SDS011;9034;50.284;19.310;2023-04-25T03:52:36;11.05;;;9.50;;
17818;SDS011;9034;50.284;19.310;2023-04-25T03:53:39;9.60;;;8.65;;
17818;SDS011;9034;50.284;19.310;2023-04-25T03:55:01;12.38;;;8.57;;
17818;SDS011;9034;50.284;19.310;2023-04-25T03:56:06;10.63;;;9.52;;
17818;SDS011;9034;50.284;19.310;2023-04-25T03:57:12;12.23;;;9.57;;
17818;SDS011;9034;50.284;19.310;2023-04-25T03:58:16;10.07;;;8.68;;
17818;SDS011;9034;50.284;19.310;2023-04-25T03:59:18;13.98;;;10.48;;
17818;SDS011;9034;50.284;19.310;2023-04-25T04:00:22;9.13;;;7.93;;
17818;SDS011;9034;50.284;19.310;2023-04-25T04:01:26;9.70;;;8.23;;
17818;SDS011;9034;50.284;19.310;2023-04-25T04:02:28;10.18;;;8.55;;
17818;SDS011;9034;50.284;19.310;2023-04-25T04:03:32;7.80;;;6.72;;
17818;SDS011;9034;50.284;19.310;2023-04-25T04:04:34;8.55;;;7.00;;
17818;SDS011;9034;50.284;19.310;2023-04-25T04:05:38;7.18;;;6.47;;
17818;SDS011;9034;50.284;19.310;2023-04-25T04:06:42;9.55;;;7.15;;
17818;SDS011;9034;50.284;19.310;2023-04-25T04:07:50;7.70;;;7.00;;
17818;SDS011;9034;50.284;19.310;2023-04-25T04:08:52;7.38;;;6.38;;
17818;SDS011;9034;50.284;19.310;2023-04-25T04:09:55;9.88;;;7.30;;
17818;SDS011;9034;50.284;19.310;2023-04-25T04:11:02;6.45;;;5.85;;
17818;SDS011;9034;50.284;19.310;2023-04-25T04:12:06;6.78;;;5.93;;
17818;SDS011;9034;50.284;19.310;2023-04-25T04:13:11;7.72;;;6.55;;
17818;SDS011;9034;50.284;19.310;2023-04-25T04:14:14;6.85;;;6.15;;
17818;SDS011;9034;50.284;19.310;2023-04-25T04:15:19;7.53;;;5.68;;
17818;SDS011;9034;50.284;19.310;2023-04-25T04:16:22;7.15;;;6.03;;
17818;SDS011;9034;50.284;19.310;2023-04-25T04:17:24;8.20;;;7.40;;
17818;SDS011;9034;50.284;19.310;2023-04-25T04:18:27;7.93;;;6.53;;
17818;SDS011;9034;50.284;19.310;2023-04-25T04:19:30;7.88;;;6.70;;
17818;SDS011;9034;50.284;19.310;2023-04-25T04:20:40;6.32;;;5.78;;
17818;SDS011;9034;50.284;19.310;2023-04-25T04:21:42;7.75;;;6.20;;
17818;SDS011;9034;50.284;19.310;2023-04-25T04:22:45;7.65;;;6.68;;
17818;SDS011;9034;50.284;19.310;2023-04-25T04:23:49;7.55;;;6.63;;
17818;SDS011;9034;50.284;19.310;2023-04-25T04:24:52;7.63;;;6.90;;
17818;SDS011;9034;50.284;19.310;2023-04-25T04:26:10;7.95;;;7.15;;
17818;SDS011;9034;50.284;19.310;2023-04-25T04:27:24;7.68;;;7.00;;
17818;SDS011;9034;50.284;19.310;2023-04-25T04:28:36;9.23;;;8.27;;
17818;SDS011;9034;50.284;19.310;2023-04-25T04:29:59;12.45;;;10.18;;
17818;SDS011;9034;50.284;19.310;2023-04-25T04:31:12;10.82;;;9.73;;
17818;SDS011;9034;50.284;19.310;2023-04-25T04:32:14;11.40;;;10.20;;
17818;SDS011;9034;50.284;19.310;2023-04-25T04:33:18;12.60;;;11.30;;
17818;SDS011;9034;50.284;19.310;2023-04-25T04:34:24;13.95;;;12.55;;
17818;SDS011;9034;50.284;19.310;2023-04-25T04:35:28;16.30;;;13.90;;
17818;SDS011;9034;50.284;19.310;2023-04-25T04:36:30;14.70;;;13.00;;
17818;SDS011;9034;50.284;19.310;2023-04-25T04:37:33;15.27;;;13.00;;
17818;SDS011;9034;50.284;19.310;2023-04-25T04:38:36;16.38;;;14.05;;
17818;SDS011;9034;50.284;19.310;2023-04-25T04:39:43;18.77;;;16.85;;
17818;SDS011;9034;50.284;19.310;2023-04-25T04:41:05;15.65;;;14.07;;
17818;SDS011;9034;50.284;19.310;2023-04-25T04:42:34;14.85;;;12.63;;
17818;SDS011;9034;50.284;19.310;2023-04-25T04:44:01;13.77;;;12.13;;
17818;SDS011;9034;50.284;19.310;2023-04-25T04:45:12;15.82;;;13.98;;
17818;SDS011;9034;50.284;19.310;2023-04-25T04:46:44;18.52;;;14.93;;
17818;SDS011;9034;50.284;19.310;2023-04-25T04:48:06;17.85;;;14.63;;
17818;SDS011;9034;50.284;19.310;2023-04-25T04:49:22;11.65;;;10.50;;
17818;SDS011;9034;50.284;19.310;2023-04-25T04:50:40;12.07;;;10.88;;
17818;SDS011;9034;50.284;19.310;2023-04-25T04:52:12;12.65;;;10.25;;
17818;SDS011;9034;50.284;19.310;2023-04-25T04:53:35;10.77;;;9.65;;
17818;SDS011;9034;50.284;19.310;2023-04-25T04:55:03;10.07;;;9.00;;
17818;SDS011;9034;50.284;19.310;2023-04-25T04:56:36;11.85;;;9.40;;
17818;SDS011;9034;50.284;19.310;2023-04-25T04:57:58;10.05;;;8.75;;
17818;SDS011;9034;50.284;19.310;2023-04-25T04:59:25;9.15;;;8.10;;
17818;SDS011;9034;50.284;19.310;2023-04-25T05:00:51;9.50;;;7.30;;
17818;SDS011;9034;50.284;19.310;2023-04-25T05:02:10;7.30;;;6.43;;
17818;SDS011;9034;50.284;19.310;2023-04-25T05:03:30;7.25;;;6.47;;
17818;SDS011;9034;50.284;19.310;2023-04-25T05:04:59;7.35;;;6.40;;
17818;SDS011;9034;50.284;19.310;2023-04-25T05:06:21;6.95;;;6.25;;
17818;SDS011;9034;50.284;19.310;2023-04-25T05:07:42;7.13;;;6.20;;
17818;SDS011;9034;50.284;19.310;2023-04-25T05:09:05;8.35;;;6.93;;
17818;SDS011;9034;50.284;19.310;2023-04-25T05:10:26;8.10;;;6.70;;
17818;SDS011;9034;50.284;19.310;2023-04-25T05:11:52;7.35;;;5.95;;
17818;SDS011;9034;50.284;19.310;2023-04-25T05:13:10;8.73;;;6.63;;
17818;SDS011;9034;50.284;19.310;2023-04-25T05:14:29;10.02;;;7.50;;
17818;SDS011;9034;50.284;19.310;2023-04-25T05:15:45;7.90;;;5.93;;
17818;SDS011;9034;50.284;19.310;2023-04-25T05:17:07;6.97;;;6.28;;
17818;SDS011;9034;50.284;19.310;2023-04-25T05:18:35;6.40;;;5.80;;
17818;SDS011;9034;50.284;19.310;2023-04-25T05:19:44;8.57;;;5.55;;
17818;SDS011;9034;50.284;19.310;2023-04-25T05:20:52;6.70;;;6.00;;
17818;SDS011;9034;50.284;19.310;2023-04-25T05:22:34;9.05;;;6.90;;
17818;SDS011;9034;50.284;19.310;2023-04-25T05:23:51;7.05;;;5.60;;
17818;SDS011;9034;50.284;19.310;2023-04-25T05:25:13;5.30;;;4.80;;
17818;SDS011;9034;50.284;19.310;2023-04-25T05:26:32;9.88;;;6.15;;
17818;SDS011;9034;50.284;19.310;2023-04-25T05:27:48;6.93;;;5.47;;
17818;SDS011;9034;50.284;19.310;2023-04-25T05:29:15;11.20;;;6.18;;
17818;SDS011;9034;50.284;19.310;2023-04-25T05:30:37;7.10;;;5.90;;
17818;SDS011;9034;50.284;19.310;2023-04-25T05:31:52;6.57;;;5.90;;
17818;SDS011;9034;50.284;19.310;2023-04-25T05:32:54;8.70;;;6.15;;
17818;SDS011;9034;50.284;19.310;2023-04-25T05:33:57;6.28;;;5.68;;
17818;SDS011;9034;50.284;19.310;2023-04-25T05:35:10;8.90;;;6.32;;
17818;SDS011;9034;50.284;19.310;2023-04-25T05:36:18;6.63;;;5.78;;
17818;SDS011;9034;50.284;19.310;2023-04-25T05:37:20;6.90;;;6.07;;
17818;SDS011;9034;50.284;19.310;2023-04-25T05:38:33;7.43;;;6.60;;
17818;SDS011;9034;50.284;19.310;2023-04-25T05:39:53;5.80;;;5.20;;
17818;SDS011;9034;50.284;19.310;2023-04-25T05:41:29;5.60;;;5.07;;
17818;SDS011;9034;50.284;19.310;2023-04-25T05:42:47;6.88;;;5.60;;
17818;SDS011;9034;50.284;19.310;2023-04-25T05:44:00;7.38;;;6.25;;
17818;SDS011;9034;50.284;19.310;2023-04-25T05:45:27;7.07;;;5.47;;
17818;SDS011;9034;50.284;19.310;2023-04-25T05:46:40;5.70;;;5.10;;
17818;SDS011;9034;50.284;19.310;2023-04-25T05:47:55;5.80;;;5.22;;
17818;SDS011;9034;50.284;19.310;2023-04-25T05:49:09;5.68;;;5.13;;
17818;SDS011;9034;50.284;19.310;2023-04-25T05:50:31;5.75;;;5.03;;
17818;SDS011;9034;50.284;19.310;2023-04-25T05:51:38;6.28;;;4.88;;
17818;SDS011;9034;50.284;19.310;2023-04-25T05:52:47;5.38;;;4.88;;
17818;SDS011;9034;50.284;19.310;2023-04-25T05:54:08;7.18;;;5.68;;
17818;SDS011;9034;50.284;19.310;2023-04-25T05:55:12;7.55;;;5.22;;
17818;SDS011;9034;50.284;19.310;2023-04-25T05:56:15;5.93;;;5.32;;
17818;SDS011;9034;50.284;19.310;2023-04-25T05:57:21;5.55;;;5.05;;
17818;SDS011;9034;50.284;19.310;2023-04-25T05:58:23;5.05;;;4.57;;
17818;SDS011;9034;50.284;19.310;2023-04-25T05:59:28;5.47;;;4.90;;
17818;SDS011;9034;50.284;19.310;2023-04-25T06:00:30;4.85;;;4.43;;
17818;SDS011;9034;50.284;19.310;2023-04-25T06:01:33;6.45;;;5.20;;
17818;SDS011;9034;50.284;19.310;2023-04-25T06:02:36;6.32;;;5.07;;
17818;SDS011;9034;50.284;19.310;2023-04-25T06:03:40;4.90;;;4.50;;
17818;SDS011;9034;50.284;19.310;2023-04-25T06:04:44;6.20;;;4.47;;
17818;SDS011;9034;50.284;19.310;2023-04-25T06:05:47;4.78;;;4.38;;
17818;SDS011;9034;50.284;19.310;2023-04-25T06:06:50;6.60;;;4.75;;
17818;SDS011;9034;50.284;19.310;2023-04-25T06:07:53;5.65;;;4.80;;
17818;SDS011;9034;50.284;19.310;2023-04-25T06:08:55;5.30;;;4.25;;
17818;SDS011;9034;50.284;19.310;2023-04-25T06:09:57;5.55;;;4.53;;
17818;SDS011;9034;50.284;19.310;2023-04-25T06:10:59;9.95;;;7.18;;
17818;SDS011;9034;50.284;19.310;2023-04-25T06:12:02;6.85;;;5.95;;
17818;SDS011;9034;50.284;19.310;2023-04-25T06:13:05;5.28;;;4.40;;
17818;SDS011;9034;50.284;19.310;2023-04-25T06:14:09;5.43;;;4.20;;
17818;SDS011;9034;50.284;19.310;2023-04-25T06:15:16;5.25;;;4.50;;
17818;SDS011;9034;50.284;19.310;2023-04-25T06:16:29;5.05;;;4.65;;
17818;SDS011;9034;50.284;19.310;2023-04-25T06:17:32;5.00;;;4.50;;
17818;SDS011;9034;50.284;19.310;2023-04-25T06:18:36;8.57;;;6.57;;
17818;SDS011;9034;50.284;19.310;2023-04-25T06:19:38;11.43;;;6.95;;
17818;SDS011;9034;50.284;19.310;2023-04-25T06:20:42;5.13;;;4.63;;
17818;SDS011;9034;50.284;19.310;2023-04-25T06:21:44;7.00;;;5.63;;
17818;SDS011;9034;50.284;19.310;2023-04-25T06:22:47;44.70;;;21.83;;
17818;SDS011;9034;50.284;19.310;2023-04-25T06:23:49;41.17;;;20.30;;
17818;SDS011;9034;50.284;19.310;2023-04-25T06:24:56;39.65;;;20.80;;
17818;SDS011;9034;50.284;19.310;2023-04-25T06:26:00;8.35;;;6.68;;
17818;SDS011;9034;50.284;19.310;2023-04-25T06:27:04;21.30;;;18.33;;
17818;SDS011;9034;50.284;19.310;2023-04-25T06:28:06;8.43;;;6.63;;
17818;SDS011;9034;50.284;19.310;2023-04-25T06:29:10;5.57;;;5.05;;
17818;SDS011;9034;50.284;19.310;2023-04-25T06:30:12;5.13;;;4.63;;
17818;SDS011;9034;50.284;19.310;2023-04-25T06:31:15;4.97;;;4.30;;
17818;SDS011;9034;50.284;19.310;2023-04-25T06:32:19;33.35;;;30.23;;
17818;SDS011;9034;50.284;19.310;2023-04-25T06:33:24;24.30;;;22.00;;
17818;SDS011;9034;50.284;19.310;2023-04-25T06:34:30;17.45;;;15.32;;